sensor_id;sensor_type;location;lat;lon;timestamp;temperature;humidity
23532;DHT22;11943;52.270;20.978;2023-07-13T00:02:21;19.10;99.90
23532;DHT22;11943;52.270;20.978;2023-07-13T00:04:47;19.10;99.90
23532;DHT22;11943;52.270;20.978;2023-07-13T00:07:13;19.10;99.90
23532;DHT22;11943;52.270;20.978;2023-07-13T00:09:40;19.00;99.90
23532;DHT22;11943;52.270;20.978;2023-07-13T00:12:29;19.00;99.90
23532;DHT22;11943;52.270;20.978;2023-07-13T00:14:57;19.00;99.90
23532;DHT22;11943;52.270;20.978;2023-07-13T00:17:23;18.90;99.90
23532;DHT22;11943;52.270;20.978;2023-07-13T00:19:49;18.90;99.90
23532;DHT22;11943;52.270;20.978;2023-07-13T00:22:14;18.90;99.90
23532;DHT22;11943;52.270;20.978;2023-07-13T00:24:40;18.90;99.90
23532;DHT22;11943;52.270;20.978;2023-07-13T00:27:08;18.90;99.90
23532;DHT22;11943;52.270;20.978;2023-07-13T00:29:35;18.90;99.90
23532;DHT22;11943;52.270;20.978;2023-07-13T00:32:05;18.90;99.90
23532;DHT22;11943;52.270;20.978;2023-07-13T00:34:31;18.80;99.90
23532;DHT22;11943;52.270;20.978;2023-07-13T00:36:57;18.80;99.90
23532;DHT22;11943;52.270;20.978;2023-07-13T00:39:23;18.90;99.90
23532;DHT22;11943;52.270;20.978;2023-07-13T00:41:50;18.90;99.90
23532;DHT22;11943;52.270;20.978;2023-07-13T00:44:18;18.90;99.90
23532;DHT22;11943;52.270;20.978;2023-07-13T00:46:43;18.90;99.90
23532;DHT22;11943;52.270;20.978;2023-07-13T00:49:13;19.00;99.90
23532;DHT22;11943;52.270;20.978;2023-07-13T00:51:57;19.00;99.90
23532;DHT22;11943;52.270;20.978;2023-07-13T00:54:31;19.00;99.90
23532;DHT22;11943;52.270;20.978;2023-07-13T00:57:00;19.00;99.90
23532;DHT22;11943;52.270;20.978;2023-07-13T00:59:26;19.00;99.90
23532;DHT22;11943;52.270;20.978;2023-07-13T01:01:52;19.00;99.90
23532;DHT22;11943;52.270;20.978;2023-07-13T01:04:19;19.00;99.90
23532;DHT22;11943;52.270;20.978;2023-07-13T01:06:45;19.00;99.90
23532;DHT22;11943;52.270;20.978;2023-07-13T01:09:14;19.00;99.90
23532;DHT22;11943;52.270;20.978;2023-07-13T01:11:41;18.90;99.90
23532;DHT22;11943;52.270;20.978;2023-07-13T01:14:08;18.90;99.90
23532;DHT22;11943;52.270;20.978;2023-07-13T01:16:36;18.90;99.90
23532;DHT22;11943;52.270;20.978;2023-07-13T01:19:02;18.90;99.90
23532;DHT22;11943;52.270;20.978;2023-07-13T01:21:29;18.90;99.90
23532;DHT22;11943;52.270;20.978;2023-07-13T01:23:57;18.90;99.90
23532;DHT22;11943;52.270;20.978;2023-07-13T01:26:23;18.80;99.90
23532;DHT22;11943;52.270;20.978;2023-07-13T01:28:49;18.80;99.90
23532;DHT22;11943;52.270;20.978;2023-07-13T01:31:14;18.80;99.90
23532;DHT22;11943;52.270;20.978;2023-07-13T01:33:41;18.80;99.90
23532;DHT22;11943;52.270;20.978;2023-07-13T01:36:08;18.70;99.90
23532;DHT22;11943;52.270;20.978;2023-07-13T01:38:35;18.70;99.90
23532;DHT22;11943;52.270;20.978;2023-07-13T01:41:02;18.70;99.90
23532;DHT22;11943;52.270;20.978;2023-07-13T01:43:28;18.70;99.90
23532;DHT22;11943;52.270;20.978;2023-07-13T01:45:53;18.70;99.90
23532;DHT22;11943;52.270;20.978;2023-07-13T01:48:19;18.70;99.90
23532;DHT22;11943;52.270;20.978;2023-07-13T01:50:47;18.70;99.90
23532;DHT22;11943;52.270;20.978;2023-07-13T01:53:12;18.70;99.90
23532;DHT22;11943;52.270;20.978;2023-07-13T01:55:38;18.70;99.90
23532;DHT22;11943;52.270;20.978;2023-07-13T01:58:04;18.60;99.90
23532;DHT22;11943;52.270;20.978;2023-07-13T02:00:31;18.60;99.90
23532;DHT22;11943;52.270;20.978;2023-07-13T02:02:56;18.60;99.90
23532;DHT22;11943;52.270;20.978;2023-07-13T02:05:22;18.60;99.90
23532;DHT22;11943;52.270;20.978;2023-07-13T02:07:48;18.60;99.90
23532;DHT22;11943;52.270;20.978;2023-07-13T02:10:15;18.60;99.90
23532;DHT22;11943;52.270;20.978;2023-07-13T02:12:41;18.60;99.90
23532;DHT22;11943;52.270;20.978;2023-07-13T02:15:08;18.60;99.90
23532;DHT22;11943;52.270;20.978;2023-07-13T02:17:35;18.50;99.90
23532;DHT22;11943;52.270;20.978;2023-07-13T02:20:01;18.50;99.90
23532;DHT22;11943;52.270;20.978;2023-07-13T02:22:27;18.40;99.90
23532;DHT22;11943;52.270;20.978;2023-07-13T02:24:53;18.40;99.90
23532;DHT22;11943;52.270;20.978;2023-07-13T02:27:19;18.40;99.90
23532;DHT22;11943;52.270;20.978;2023-07-13T02:29:45;18.50;99.90
23532;DHT22;11943;52.270;20.978;2023-07-13T02:32:10;18.40;99.90
23532;DHT22;11943;52.270;20.978;2023-07-13T02:34:36;18.40;99.90
23532;DHT22;11943;52.270;20.978;2023-07-13T02:37:02;18.40;99.90
23532;DHT22;11943;52.270;20.978;2023-07-13T02:39:28;18.30;99.90
23532;DHT22;11943;52.270;20.978;2023-07-13T02:41:53;18.40;99.90
23532;DHT22;11943;52.270;20.978;2023-07-13T02:44:19;18.40;99.90
23532;DHT22;11943;52.270;20.978;2023-07-13T02:46:44;18.40;99.90
23532;DHT22;11943;52.270;20.978;2023-07-13T02:49:10;18.40;99.90
23532;DHT22;11943;52.270;20.978;2023-07-13T02:51:36;18.40;99.90
23532;DHT22;11943;52.270;20.978;2023-07-13T02:54:04;18.50;99.90
23532;DHT22;11943;52.270;20.978;2023-07-13T02:56:31;18.50;99.90
23532;DHT22;11943;52.270;20.978;2023-07-13T02:58:57;18.60;99.90
23532;DHT22;11943;52.270;20.978;2023-07-13T03:01:23;18.50;99.90
23532;DHT22;11943;52.270;20.978;2023-07-13T03:03:50;18.60;99.90
23532;DHT22;11943;52.270;20.978;2023-07-13T03:06:16;18.50;99.90
23532;DHT22;11943;52.270;20.978;2023-07-13T03:08:43;18.50;99.90
23532;DHT22;11943;52.270;20.978;2023-07-13T03:11:12;18.50;99.90
23532;DHT22;11943;52.270;20.978;2023-07-13T03:13:39;18.50;99.90
23532;DHT22;11943;52.270;20.978;2023-07-13T03:16:05;18.50;99.90
23532;DHT22;11943;52.270;20.978;2023-07-13T03:18:31;18.50;99.90
23532;DHT22;11943;52.270;20.978;2023-07-13T03:20:57;18.40;99.90
23532;DHT22;11943;52.270;20.978;2023-07-13T03:23:23;18.50;99.90
23532;DHT22;11943;52.270;20.978;2023-07-13T03:25:50;18.40;99.90
23532;DHT22;11943;52.270;20.978;2023-07-13T03:28:16;18.40;99.90
23532;DHT22;11943;52.270;20.978;2023-07-13T03:30:42;18.40;99.90
23532;DHT22;11943;52.270;20.978;2023-07-13T03:33:08;18.40;99.90
23532;DHT22;11943;52.270;20.978;2023-07-13T03:35:35;18.30;99.90
23532;DHT22;11943;52.270;20.978;2023-07-13T03:38:01;18.30;99.90
23532;DHT22;11943;52.270;20.978;2023-07-13T03:40:28;18.40;99.90
23532;DHT22;11943;52.270;20.978;2023-07-13T03:42:53;18.40;99.90
23532;DHT22;11943;52.270;20.978;2023-07-13T03:45:19;18.40;99.90
23532;DHT22;11943;52.270;20.978;2023-07-13T03:47:45;18.40;99.90
23532;DHT22;11943;52.270;20.978;2023-07-13T03:50:11;18.50;99.90
23532;DHT22;11943;52.270;20.978;2023-07-13T03:52:37;18.50;99.90
23532;DHT22;11943;52.270;20.978;2023-07-13T03:55:03;18.60;99.90
23532;DHT22;11943;52.270;20.978;2023-07-13T03:57:28;18.70;99.90
23532;DHT22;11943;52.270;20.978;2023-07-13T03:59:54;18.70;99.90
23532;DHT22;11943;52.270;20.978;2023-07-13T04:02:20;18.80;99.90
23532;DHT22;11943;52.270;20.978;2023-07-13T04:04:46;18.90;99.90
23532;DHT22;11943;52.270;20.978;2023-07-13T04:07:12;19.00;99.90
23532;DHT22;11943;52.270;20.978;2023-07-13T04:09:37;19.00;99.90
23532;DHT22;11943;52.270;20.978;2023-07-13T04:12:03;19.10;99.90
23532;DHT22;11943;52.270;20.978;2023-07-13T04:14:29;19.20;99.90
23532;DHT22;11943;52.270;20.978;2023-07-13T04:16:55;19.30;99.90
23532;DHT22;11943;52.270;20.978;2023-07-13T04:19:20;19.50;99.90
23532;DHT22;11943;52.270;20.978;2023-07-13T04:21:46;19.70;99.90
23532;DHT22;11943;52.270;20.978;2023-07-13T04:24:12;19.80;99.90
23532;DHT22;11943;52.270;20.978;2023-07-13T04:26:38;20.10;99.90
23532;DHT22;11943;52.270;20.978;2023-07-13T04:29:04;20.40;99.90
23532;DHT22;11943;52.270;20.978;2023-07-13T04:31:31;20.60;99.90
23532;DHT22;11943;52.270;20.978;2023-07-13T04:33:57;20.80;99.90
23532;DHT22;11943;52.270;20.978;2023-07-13T04:36:23;21.00;99.90
23532;DHT22;11943;52.270;20.978;2023-07-13T04:38:52;21.10;99.90
23532;DHT22;11943;52.270;20.978;2023-07-13T04:41:20;21.20;99.90
23532;DHT22;11943;52.270;20.978;2023-07-13T04:43:45;21.20;99.90
23532;DHT22;11943;52.270;20.978;2023-07-13T04:46:13;21.40;99.90
23532;DHT22;11943;52.270;20.978;2023-07-13T04:48:40;21.50;99.90
23532;DHT22;11943;52.270;20.978;2023-07-13T04:51:05;21.50;99.90
23532;DHT22;11943;52.270;20.978;2023-07-13T04:53:33;21.50;99.90
23532;DHT22;11943;52.270;20.978;2023-07-13T04:55:59;21.50;99.90
23532;DHT22;11943;52.270;20.978;2023-07-13T04:58:25;21.50;99.90
23532;DHT22;11943;52.270;20.978;2023-07-13T05:00:52;21.50;99.90
23532;DHT22;11943;52.270;20.978;2023-07-13T05:03:17;21.50;99.90
23532;DHT22;11943;52.270;20.978;2023-07-13T05:05:54;21.50;99.90
23532;DHT22;11943;52.270;20.978;2023-07-13T05:08:19;21.50;99.90
23532;DHT22;11943;52.270;20.978;2023-07-13T05:10:45;21.50;99.90
23532;DHT22;11943;52.270;20.978;2023-07-13T05:13:11;21.50;99.90
23532;DHT22;11943;52.270;20.978;2023-07-13T05:15:36;21.50;99.90
23532;DHT22;11943;52.270;20.978;2023-07-13T05:18:02;21.40;99.90
23532;DHT22;11943;52.270;20.978;2023-07-13T05:20:28;21.40;99.90
23532;DHT22;11943;52.270;20.978;2023-07-13T05:22:53;21.50;99.90
23532;DHT22;11943;52.270;20.978;2023-07-13T05:25:19;21.50;99.90
23532;DHT22;11943;52.270;20.978;2023-07-13T05:27:44;21.50;99.90
23532;DHT22;11943;52.270;20.978;2023-07-13T05:30:11;21.50;99.90
23532;DHT22;11943;52.270;20.978;2023-07-13T05:32:37;21.60;99.90
23532;DHT22;11943;52.270;20.978;2023-07-13T05:35:03;21.60;99.90
23532;DHT22;11943;52.270;20.978;2023-07-13T05:37:28;21.70;99.90
23532;DHT22;11943;52.270;20.978;2023-07-13T05:39:54;21.80;99.90
23532;DHT22;11943;52.270;20.978;2023-07-13T05:42:20;21.90;99.90
23532;DHT22;11943;52.270;20.978;2023-07-13T05:44:45;22.10;99.90
23532;DHT22;11943;52.270;20.978;2023-07-13T05:47:11;22.30;99.90
23532;DHT22;11943;52.270;20.978;2023-07-13T05:49:37;22.40;99.90
23532;DHT22;11943;52.270;20.978;2023-07-13T05:52:03;22.60;99.90
23532;DHT22;11943;52.270;20.978;2023-07-13T05:54:28;22.70;99.90
23532;DHT22;11943;52.270;20.978;2023-07-13T05:56:55;22.80;99.90
23532;DHT22;11943;52.270;20.978;2023-07-13T05:59:20;22.90;99.90
23532;DHT22;11943;52.270;20.978;2023-07-13T06:01:46;22.90;99.90
23532;DHT22;11943;52.270;20.978;2023-07-13T06:04:11;22.80;99.90
23532;DHT22;11943;52.270;20.978;2023-07-13T06:06:37;22.90;99.90
23532;DHT22;11943;52.270;20.978;2023-07-13T06:09:03;22.80;99.90
23532;DHT22;11943;52.270;20.978;2023-07-13T06:11:28;22.80;99.90
23532;DHT22;11943;52.270;20.978;2023-07-13T06:13:55;23.00;99.90
23532;DHT22;11943;52.270;20.978;2023-07-13T06:16:22;23.10;99.90
23532;DHT22;11943;52.270;20.978;2023-07-13T06:18:48;23.10;99.90
23532;DHT22;11943;52.270;20.978;2023-07-13T06:21:16;23.30;99.90
23532;DHT22;11943;52.270;20.978;2023-07-13T06:23:42;23.30;99.90
23532;DHT22;11943;52.270;20.978;2023-07-13T06:26:09;23.30;99.90
23532;DHT22;11943;52.270;20.978;2023-07-13T06:28:36;23.60;99.90
23532;DHT22;11943;52.270;20.978;2023-07-13T06:31:04;23.90;99.90
23532;DHT22;11943;52.270;20.978;2023-07-13T06:33:30;24.10;99.90
23532;DHT22;11943;52.270;20.978;2023-07-13T06:35:55;24.50;99.90
23532;DHT22;11943;52.270;20.978;2023-07-13T06:38:21;24.80;99.90
23532;DHT22;11943;52.270;20.978;2023-07-13T06:40:47;24.90;99.90
23532;DHT22;11943;52.270;20.978;2023-07-13T06:43:13;25.20;99.90
23532;DHT22;11943;52.270;20.978;2023-07-13T06:45:44;25.10;99.90
23532;DHT22;11943;52.270;20.978;2023-07-13T06:48:15;25.00;99.90
23532;DHT22;11943;52.270;20.978;2023-07-13T06:50:44;25.10;99.90
23532;DHT22;11943;52.270;20.978;2023-07-13T06:53:11;25.00;99.90
23532;DHT22;11943;52.270;20.978;2023-07-13T06:55:37;25.10;99.90
23532;DHT22;11943;52.270;20.978;2023-07-13T06:58:03;25.20;99.90
23532;DHT22;11943;52.270;20.978;2023-07-13T07:00:29;25.20;99.90
23532;DHT22;11943;52.270;20.978;2023-07-13T07:02:55;25.20;98.20
23532;DHT22;11943;52.270;20.978;2023-07-13T07:05:20;25.20;94.70
23532;DHT22;11943;52.270;20.978;2023-07-13T07:07:51;25.40;93.00
23532;DHT22;11943;52.270;20.978;2023-07-13T07:10:18;25.30;90.80
23532;DHT22;11943;52.270;20.978;2023-07-13T07:12:44;25.90;91.80
23532;DHT22;11943;52.270;20.978;2023-07-13T07:15:10;26.20;89.10
23532;DHT22;11943;52.270;20.978;2023-07-13T07:17:35;26.50;88.10
23532;DHT22;11943;52.270;20.978;2023-07-13T07:20:02;26.80;86.70
23532;DHT22;11943;52.270;20.978;2023-07-13T07:22:29;27.10;86.70
23532;DHT22;11943;52.270;20.978;2023-07-13T07:24:56;26.80;83.90
23532;DHT22;11943;52.270;20.978;2023-07-13T07:27:22;26.60;81.80
23532;DHT22;11943;52.270;20.978;2023-07-13T07:29:48;26.50;83.20
23532;DHT22;11943;52.270;20.978;2023-07-13T07:32:13;26.70;79.70
23532;DHT22;11943;52.270;20.978;2023-07-13T07:34:39;26.50;81.20
23532;DHT22;11943;52.270;20.978;2023-07-13T07:37:05;26.50;80.10
23532;DHT22;11943;52.270;20.978;2023-07-13T07:39:31;26.40;80.40
23532;DHT22;11943;52.270;20.978;2023-07-13T07:41:57;26.40;84.80
23532;DHT22;11943;52.270;20.978;2023-07-13T07:44:23;26.70;82.80
23532;DHT22;11943;52.270;20.978;2023-07-13T07:46:48;26.60;76.40
23532;DHT22;11943;52.270;20.978;2023-07-13T07:49:15;26.60;74.50
23532;DHT22;11943;52.270;20.978;2023-07-13T07:51:40;26.60;73.30
23532;DHT22;11943;52.270;20.978;2023-07-13T07:54:06;26.60;74.00
23532;DHT22;11943;52.270;20.978;2023-07-13T07:56:32;26.70;74.00
23532;DHT22;11943;52.270;20.978;2023-07-13T07:58:58;26.10;70.50
23532;DHT22;11943;52.270;20.978;2023-07-13T08:01:24;26.10;74.30
23532;DHT22;11943;52.270;20.978;2023-07-13T08:03:49;25.90;74.50
23532;DHT22;11943;52.270;20.978;2023-07-13T08:06:15;26.30;77.00
23532;DHT22;11943;52.270;20.978;2023-07-13T08:08:41;26.40;75.80
23532;DHT22;11943;52.270;20.978;2023-07-13T08:11:08;26.40;74.10
23532;DHT22;11943;52.270;20.978;2023-07-13T08:13:35;26.40;77.70
23532;DHT22;11943;52.270;20.978;2023-07-13T08:16:01;26.60;76.60
23532;DHT22;11943;52.270;20.978;2023-07-13T08:18:26;26.80;74.90
23532;DHT22;11943;52.270;20.978;2023-07-13T08:20:53;27.20;74.00
23532;DHT22;11943;52.270;20.978;2023-07-13T08:23:22;27.50;75.10
23532;DHT22;11943;52.270;20.978;2023-07-13T08:25:54;27.50;71.50
23532;DHT22;11943;52.270;20.978;2023-07-13T08:28:21;27.60;70.40
23532;DHT22;11943;52.270;20.978;2023-07-13T08:30:47;27.60;71.70
23532;DHT22;11943;52.270;20.978;2023-07-13T08:33:18;27.40;70.60
23532;DHT22;11943;52.270;20.978;2023-07-13T08:35:48;27.50;71.70
23532;DHT22;11943;52.270;20.978;2023-07-13T08:38:14;27.50;70.70
23532;DHT22;11943;52.270;20.978;2023-07-13T08:40:41;27.70;69.50
23532;DHT22;11943;52.270;20.978;2023-07-13T08:43:16;27.90;70.00
23532;DHT22;11943;52.270;20.978;2023-07-13T08:45:48;27.80;67.90
23532;DHT22;11943;52.270;20.978;2023-07-13T08:48:18;28.00;67.40
23532;DHT22;11943;52.270;20.978;2023-07-13T08:53:22;28.20;64.30
23532;DHT22;11943;52.270;20.978;2023-07-13T08:55:58;28.10;66.70
23532;DHT22;11943;52.270;20.978;2023-07-13T08:58:25;28.00;64.10
23532;DHT22;11943;52.270;20.978;2023-07-13T09:03:29;27.60;66.10
23532;DHT22;11943;52.270;20.978;2023-07-13T09:05:59;27.60;67.00
23532;DHT22;11943;52.270;20.978;2023-07-13T09:17:15;28.00;65.90
23532;DHT22;11943;52.270;20.978;2023-07-13T09:19:45;27.90;66.60
23532;DHT22;11943;52.270;20.978;2023-07-13T09:22:17;27.90;66.00
23532;DHT22;11943;52.270;20.978;2023-07-13T09:27:50;27.90;67.50
23532;DHT22;11943;52.270;20.978;2023-07-13T09:30:28;27.50;68.10
23532;DHT22;11943;52.270;20.978;2023-07-13T09:32:55;26.60;71.80
23532;DHT22;11943;52.270;20.978;2023-07-13T09:35:26;26.40;74.30
23532;DHT22;11943;52.270;20.978;2023-07-13T09:37:58;25.90;75.40
23532;DHT22;11943;52.270;20.978;2023-07-13T09:43:10;25.00;79.60
23532;DHT22;11943;52.270;20.978;2023-07-13T09:45:37;24.70;82.80
23532;DHT22;11943;52.270;20.978;2023-07-13T09:48:12;24.60;83.40
23532;DHT22;11943;52.270;20.978;2023-07-13T09:50:39;24.60;84.60
23532;DHT22;11943;52.270;20.978;2023-07-13T09:53:12;24.60;84.40
23532;DHT22;11943;52.270;20.978;2023-07-13T09:55:40;24.60;85.50
23532;DHT22;11943;52.270;20.978;2023-07-13T09:58:16;24.90;83.20
23532;DHT22;11943;52.270;20.978;2023-07-13T10:00:53;25.20;81.40
23532;DHT22;11943;52.270;20.978;2023-07-13T10:03:22;25.40;79.10
23532;DHT22;11943;52.270;20.978;2023-07-13T10:05:50;25.80;77.80
23532;DHT22;11943;52.270;20.978;2023-07-13T10:08:23;25.90;75.70
23532;DHT22;11943;52.270;20.978;2023-07-13T10:10:57;25.70;75.70
23532;DHT22;11943;52.270;20.978;2023-07-13T10:13:56;25.50;78.00
23532;DHT22;11943;52.270;20.978;2023-07-13T10:16:24;25.50;76.40
23532;DHT22;11943;52.270;20.978;2023-07-13T10:18:55;25.30;78.80
23532;DHT22;11943;52.270;20.978;2023-07-13T10:21:27;25.20;80.30
23532;DHT22;11943;52.270;20.978;2023-07-13T10:24:12;25.10;80.50
23532;DHT22;11943;52.270;20.978;2023-07-13T10:26:43;24.90;84.00
23532;DHT22;11943;52.270;20.978;2023-07-13T10:29:14;24.50;84.50
23532;DHT22;11943;52.270;20.978;2023-07-13T10:31:41;24.40;90.20
23532;DHT22;11943;52.270;20.978;2023-07-13T10:34:11;24.30;91.30
23532;DHT22;11943;52.270;20.978;2023-07-13T10:36:47;24.10;96.10
23532;DHT22;11943;52.270;20.978;2023-07-13T10:39:20;23.80;99.90
23532;DHT22;11943;52.270;20.978;2023-07-13T10:41:51;23.30;99.90
23532;DHT22;11943;52.270;20.978;2023-07-13T10:44:26;22.90;99.90
23532;DHT22;11943;52.270;20.978;2023-07-13T10:47:15;22.20;99.90
23532;DHT22;11943;52.270;20.978;2023-07-13T10:49:42;21.80;99.90
23532;DHT22;11943;52.270;20.978;2023-07-13T10:55:03;21.10;99.90
23532;DHT22;11943;52.270;20.978;2023-07-13T10:57:29;20.90;99.90
23532;DHT22;11943;52.270;20.978;2023-07-13T11:00:37;20.60;99.90
23532;DHT22;11943;52.270;20.978;2023-07-13T11:02:57;20.30;99.90
23532;DHT22;11943;52.270;20.978;2023-07-13T11:07:56;19.70;99.90
23532;DHT22;11943;52.270;20.978;2023-07-13T11:11:00;19.70;99.90
23532;DHT22;11943;52.270;20.978;2023-07-13T11:18:48;19.70;99.90
23532;DHT22;11943;52.270;20.978;2023-07-13T11:21:26;19.60;99.90
23532;DHT22;11943;52.270;20.978;2023-07-13T11:24:00;19.70;99.90
23532;DHT22;11943;52.270;20.978;2023-07-13T11:26:42;19.80;99.90
23532;DHT22;11943;52.270;20.978;2023-07-13T11:31:59;19.90;99.90
23532;DHT22;11943;52.270;20.978;2023-07-13T11:34:38;19.70;99.90
23532;DHT22;11943;52.270;20.978;2023-07-13T11:37:11;19.70;99.90
23532;DHT22;11943;52.270;20.978;2023-07-13T11:39:42;19.70;99.90
23532;DHT22;11943;52.270;20.978;2023-07-13T11:42:13;19.70;99.90
23532;DHT22;11943;52.270;20.978;2023-07-13T11:44:47;19.70;99.90
23532;DHT22;11943;52.270;20.978;2023-07-13T11:47:23;19.70;99.90
23532;DHT22;11943;52.270;20.978;2023-07-13T11:49:52;19.70;99.90
23532;DHT22;11943;52.270;20.978;2023-07-13T11:52:23;19.60;99.90
23532;DHT22;11943;52.270;20.978;2023-07-13T11:54:52;19.60;99.90
23532;DHT22;11943;52.270;20.978;2023-07-13T11:59:52;19.70;99.90
23532;DHT22;11943;52.270;20.978;2023-07-13T12:02:39;19.80;99.90
23532;DHT22;11943;52.270;20.978;2023-07-13T12:05:11;19.90;99.90
23532;DHT22;11943;52.270;20.978;2023-07-13T12:07:38;19.90;99.90
23532;DHT22;11943;52.270;20.978;2023-07-13T12:10:26;19.90;99.90
23532;DHT22;11943;52.270;20.978;2023-07-13T12:12:58;19.90;99.90
23532;DHT22;11943;52.270;20.978;2023-07-13T12:15:41;20.00;99.90
23532;DHT22;11943;52.270;20.978;2023-07-13T12:18:18;20.10;99.90
23532;DHT22;11943;52.270;20.978;2023-07-13T12:20:45;19.90;99.90
23532;DHT22;11943;52.270;20.978;2023-07-13T12:23:24;19.90;99.90
23532;DHT22;11943;52.270;20.978;2023-07-13T12:25:51;19.90;99.90
23532;DHT22;11943;52.270;20.978;2023-07-13T12:28:37;19.90;99.90
23532;DHT22;11943;52.270;20.978;2023-07-13T12:31:05;19.90;99.90
23532;DHT22;11943;52.270;20.978;2023-07-13T12:33:33;19.80;99.90
23532;DHT22;11943;52.270;20.978;2023-07-13T12:36:03;19.90;99.90
23532;DHT22;11943;52.270;20.978;2023-07-13T12:38:31;19.80;99.90
23532;DHT22;11943;52.270;20.978;2023-07-13T12:40:57;19.80;99.90
23532;DHT22;11943;52.270;20.978;2023-07-13T12:43:24;19.80;99.90
23532;DHT22;11943;52.270;20.978;2023-07-13T12:46:13;19.80;99.90
23532;DHT22;11943;52.270;20.978;2023-07-13T12:48:41;19.80;99.90
23532;DHT22;11943;52.270;20.978;2023-07-13T12:51:11;19.90;99.90
23532;DHT22;11943;52.270;20.978;2023-07-13T12:53:50;19.90;99.90
23532;DHT22;11943;52.270;20.978;2023-07-13T12:56:22;19.90;99.90
23532;DHT22;11943;52.270;20.978;2023-07-13T12:58:48;19.70;99.90
23532;DHT22;11943;52.270;20.978;2023-07-13T13:01:21;19.70;99.90
23532;DHT22;11943;52.270;20.978;2023-07-13T13:03:50;19.80;99.90
23532;DHT22;11943;52.270;20.978;2023-07-13T13:08:47;19.80;99.90
23532;DHT22;11943;52.270;20.978;2023-07-13T13:11:14;19.80;99.90
23532;DHT22;11943;52.270;20.978;2023-07-13T13:13:42;19.80;99.90
23532;DHT22;11943;52.270;20.978;2023-07-13T13:16:22;19.80;99.90
23532;DHT22;11943;52.270;20.978;2023-07-13T13:18:51;19.80;99.90
23532;DHT22;11943;52.270;20.978;2023-07-13T13:21:17;19.80;99.90
23532;DHT22;11943;52.270;20.978;2023-07-13T13:23:44;19.90;99.90
23532;DHT22;11943;52.270;20.978;2023-07-13T13:26:13;20.00;99.90
23532;DHT22;11943;52.270;20.978;2023-07-13T13:28:40;20.10;99.90
23532;DHT22;11943;52.270;20.978;2023-07-13T13:31:08;20.10;99.90
23532;DHT22;11943;52.270;20.978;2023-07-13T13:33:39;20.20;99.90
23532;DHT22;11943;52.270;20.978;2023-07-13T13:36:20;20.10;99.90
23532;DHT22;11943;52.270;20.978;2023-07-13T13:38:48;20.10;99.90
23532;DHT22;11943;52.270;20.978;2023-07-13T13:41:14;20.20;99.90
23532;DHT22;11943;52.270;20.978;2023-07-13T13:43:42;20.20;99.90
23532;DHT22;11943;52.270;20.978;2023-07-13T13:46:28;20.40;99.90
23532;DHT22;11943;52.270;20.978;2023-07-13T13:48:55;20.50;99.90
23532;DHT22;11943;52.270;20.978;2023-07-13T13:51:23;20.50;99.90
23532;DHT22;11943;52.270;20.978;2023-07-13T13:53:49;20.60;99.90
23532;DHT22;11943;52.270;20.978;2023-07-13T13:56:16;20.60;99.90
23532;DHT22;11943;52.270;20.978;2023-07-13T13:58:43;20.60;99.90
23532;DHT22;11943;52.270;20.978;2023-07-13T14:01:19;20.50;99.90
23532;DHT22;11943;52.270;20.978;2023-07-13T14:03:46;20.50;99.90
23532;DHT22;11943;52.270;20.978;2023-07-13T14:06:14;20.60;99.90
23532;DHT22;11943;52.270;20.978;2023-07-13T14:08:41;20.70;99.90
23532;DHT22;11943;52.270;20.978;2023-07-13T14:11:11;20.70;99.90
23532;DHT22;11943;52.270;20.978;2023-07-13T14:13:43;20.70;99.90
23532;DHT22;11943;52.270;20.978;2023-07-13T14:16:18;20.70;99.90
23532;DHT22;11943;52.270;20.978;2023-07-13T14:18:44;20.70;99.90
23532;DHT22;11943;52.270;20.978;2023-07-13T14:21:15;20.70;99.90
23532;DHT22;11943;52.270;20.978;2023-07-13T14:35:11;20.70;99.90
23532;DHT22;11943;52.270;20.978;2023-07-13T14:37:38;20.50;99.90
23532;DHT22;11943;52.270;20.978;2023-07-13T14:40:16;20.60;99.90
23532;DHT22;11943;52.270;20.978;2023-07-13T14:42:42;20.80;99.90
23532;DHT22;11943;52.270;20.978;2023-07-13T14:45:19;20.90;99.90
23532;DHT22;11943;52.270;20.978;2023-07-13T14:47:45;21.00;99.90
23532;DHT22;11943;52.270;20.978;2023-07-13T14:50:16;20.90;99.90
23532;DHT22;11943;52.270;20.978;2023-07-13T14:52:43;20.80;99.90
23532;DHT22;11943;52.270;20.978;2023-07-13T14:55:14;20.80;99.90
23532;DHT22;11943;52.270;20.978;2023-07-13T14:57:40;20.80;99.90
23532;DHT22;11943;52.270;20.978;2023-07-13T15:00:26;20.70;99.90
23532;DHT22;11943;52.270;20.978;2023-07-13T15:02:56;20.70;99.90
23532;DHT22;11943;52.270;20.978;2023-07-13T15:05:31;20.70;99.90
23532;DHT22;11943;52.270;20.978;2023-07-13T15:08:00;20.70;99.90
23532;DHT22;11943;52.270;20.978;2023-07-13T15:10:29;20.70;99.90
23532;DHT22;11943;52.270;20.978;2023-07-13T15:13:16;20.70;99.90
23532;DHT22;11943;52.270;20.978;2023-07-13T15:15:49;20.60;99.90
23532;DHT22;11943;52.270;20.978;2023-07-13T15:18:19;20.70;99.90
23532;DHT22;11943;52.270;20.978;2023-07-13T15:20:47;20.70;99.90
23532;DHT22;11943;52.270;20.978;2023-07-13T15:23:14;20.70;99.90
23532;DHT22;11943;52.270;20.978;2023-07-13T15:25:41;20.60;99.90
23532;DHT22;11943;52.270;20.978;2023-07-13T15:28:08;20.60;99.90
23532;DHT22;11943;52.270;20.978;2023-07-13T15:30:42;20.60;99.90
23532;DHT22;11943;52.270;20.978;2023-07-13T15:33:15;20.60;99.90
23532;DHT22;11943;52.270;20.978;2023-07-13T15:35:44;20.60;99.90
23532;DHT22;11943;52.270;20.978;2023-07-13T15:38:18;20.50;99.90
23532;DHT22;11943;52.270;20.978;2023-07-13T15:40:45;20.40;99.90
23532;DHT22;11943;52.270;20.978;2023-07-13T15:43:12;20.40;99.90
23532;DHT22;11943;52.270;20.978;2023-07-13T15:45:39;20.30;99.90
23532;DHT22;11943;52.270;20.978;2023-07-13T15:48:22;20.40;99.90
23532;DHT22;11943;52.270;20.978;2023-07-13T15:50:50;20.30;99.90
23532;DHT22;11943;52.270;20.978;2023-07-13T15:53:23;20.30;99.90
23532;DHT22;11943;52.270;20.978;2023-07-13T15:55:49;20.30;99.90
23532;DHT22;11943;52.270;20.978;2023-07-13T15:58:16;20.30;99.90
23532;DHT22;11943;52.270;20.978;2023-07-13T16:00:42;20.30;99.90
23532;DHT22;11943;52.270;20.978;2023-07-13T16:03:08;20.30;99.90
23532;DHT22;11943;52.270;20.978;2023-07-13T16:05:35;20.30;99.90
23532;DHT22;11943;52.270;20.978;2023-07-13T16:08:01;20.30;99.90
23532;DHT22;11943;52.270;20.978;2023-07-13T16:10:31;20.30;99.90
23532;DHT22;11943;52.270;20.978;2023-07-13T16:12:58;20.10;99.90
23532;DHT22;11943;52.270;20.978;2023-07-13T16:15:24;20.00;99.90